Ευχαριστούμε που συμβάλλετε στη διατήρηση της σελίδας μας.

Thank you for your donations, it really helps to maintain the page.


Στατιστικά Καιρού & Άλλα..









Δείκτης Πυρκαγιάς (FWI)

Καστελόκαμπος Ρίον more information Kastelokampos Rion


Κάμερα Ρομανού more information Romanos Cam


Ραντάρ Κεραυνών more information blitzortung!


Ραντάρ Βροχής more information rain snow radar


Επισκεφθείτε άλλες ιστοσελίδες καιρού μας:

Meteopatras.Eu in
Euweather NetworkMeteopatras.Eu in Euweather Network

Weather CloudWeather Cloud

PWS WeatherPWS Weather

Awekas NetWeather data from station Patra-Ketx

WunderGroundWeather data from station Patra-Ketx




Ιδιοκτησία και Επίβλεψη : Μουλάς Αντρέας

 Πάτρα, Ελλάδα - Γ.Πλάτος : 38°14'21" Β - Γ.Μήκος : 21°45'5" Α - Υψόμετρο : 56μ

Select another period ( hide this area )

Μονάδες Περίοδο Custom range Directly to
Μετρικό Αγγλικό Και τα δύο
Καθημερινά Εβδομαδιαία Μηνιαία Ετήσια
use both date-selectors for a custom range
previous Ημέρα
With this date

WeatherUnderground graphs for this period ( click here )


Warning: Division by zero in /storage/content/70/1007070/meteopatras.eu/public_html/weather/wu/WU-History4.php on line 835
Καθημερινά Περίληψη για Τετάρτη 11 Δεκέμβριος 2019
Ώρα Temp. ( °C ) Dew pt. ( °C ) Άνεμος ( km/h ) απο Ριπή ( km/h ) Πίεση ( hPa ) Humid.( % ) Rainrate ( cm ) Solar ( W/m2 )
Υψηλή12,5 10,8 3,4 ΒΒΑ ( 52/63 ) 8,0 1005,5 91 - 0
Μέση Τιμή11,9 10,3 1,1 Άπνοια #29/57 3,4 1005,2 90 - NAN #0/57
Χαμηλή11,3 9,6 -   0,0 1004,8 88 -  
Καθημερινά Tabular details for Τετάρτη 11 Δεκέμβριος 2019
Ώρα Temp. ( °C ) Dew pt. ( °C ) Άνεμος ( km/h ) απο Ριπή ( km/h ) Πίεση ( hPa ) Humid.( % ) Rainrate ( cm ) Solar ( W/m2 )
00:00 12,5 10,7 3,2 Βοράς 8,0 1005,4 89 - -
00:05 12,4 10,7 1,6 Βοράς 8,0 1005,4 89 - -
00:10 12,4 10,7 3,2 Βοράς 6,4 1005,5 89 - -
00:15 12,4 10,7 3,2 Βοράς 8,0 1005,4 89 - -
00:20 12,4 10,7 1,6 ΒΒΑ 4,8 1005,4 89 - -
00:25 12,4 10,7 1,6 ΒΒΑ 4,8 1005,4 89 - -
00:30 12,4 10,8 3,2 ΒΒΑ 4,8 1005,4 90 - -
00:35 12,4 10,8 1,6 ΒΒΑ 6,4 1005,5 90 - -
00:40 12,4 10,8   Άπνοια 3,2 1005,5 90 - -
00:45 12,4 10,8   Άπνοια 1,6 1005,4 90 - -
00:50 12,4 10,8 0,3 ΒΒΑ 1,9 1005,4 90 - -
00:55 12,4 10,8   Άπνοια   1005,4 90 - -
01:00 12,4 10,8 1,6 ΒΒΑ 3,2 1005,4 90 - -
01:05 12,3 10,7   Άπνοια 3,2 1005,5 90 - -
01:10 12,3 10,8   Άπνοια 3,2 1005,4 91 - -
01:15 12,3 10,8   Άπνοια   1005,4 91 - -
01:20 12,2 10,8 1,6 ΒΒΑ 4,8 1005,2 91 - -
01:25 12,2 10,7   Άπνοια 3,2 1005,1 91 - -
01:30 12,1 10,7 3,4 ΒΒΑ 5,6 1005,1 91 - -
01:35 12,1 10,7 1,6 ΒΒΑ 4,8 1005,1 91 - -
01:40 12,1 10,6 3,2 ΒΒΑ 4,8 1005,2 91 - -
01:45 12,0 10,6   Άπνοια 4,8 1005,3 91 - -
01:50 12,0 10,6   Άπνοια 3,2 1005,3 91 - -
01:55 12,0 10,6 3,2 ΒΒΑ 4,8 1005,3 91 - -
02:00 12,0 10,4 1,6 ΒΒΑ 4,8 1005,4 90 - -
02:05 11,9 10,3 1,6 ΒΒΑ 3,2 1005,3 90 - -
02:10 11,9 10,3 1,6 ΒΒΑ 3,2 1005,3 90 - -
02:15 11,9 10,4   Άπνοια 3,2 1005,2 91 - -
02:20 11,8 10,4   Άπνοια 1,6 1005,2 91 - -
02:25 11,8 10,3   Άπνοια 4,8 1005,2 91 - -
02:30 11,8 10,3   Άπνοια 3,2 1005,2 91 - -
02:35 11,8 10,3   Άπνοια   1005,2 91 - -
02:40 11,8 10,3   Άπνοια   1005,2 91 - -
02:45 11,8 10,3   Άπνοια   1005,1 91 - -
02:50 11,8 10,3   Άπνοια   1005,2 91 - -
02:55 11,7 10,3   Άπνοια   1005,2 91 - -
03:00 11,7 10,1   Άπνοια   1005,2 90 - -
03:05 11,7 10,1   Άπνοια 4,8 1005,2 90 - -
03:10 11,6 10,1 1,6 ΒΒΑ 6,4 1005,2 90 - -
03:15 11,7 10,1 1,6 ΒΒΑ 3,2 1005,1 90 - -
03:20 11,7 10,1 3,2 ΒΒΑ 6,4 1005,0 90 - -
03:25 11,7 10,0 1,6 ΒΒΑ 4,8 1005,0 89 - -
03:30 11,7 9,9   Άπνοια 3,2 1005,0 89 - -
03:35 11,7 9,9   Άπνοια 3,2 1004,9 89 - -
03:40 11,6 9,9   Άπνοια 3,2 1004,9 89 - -
03:45 11,6 9,8   Άπνοια   1004,9 89 - -
03:50 11,6 9,8   Άπνοια   1005,0 89 - -
03:55 11,5 9,7   Άπνοια   1005,0 89 - -
04:00 11,4 9,7   Άπνοια   1005,0 89 - -
04:05 11,4 9,7   Άπνοια   1005,0 89 - -
04:10 11,4 9,7   Άπνοια   1004,9 89 - -
04:15 11,3 9,6 3,2 ΒΒΑ 6,4 1004,8 89 - -
04:20 11,4 9,7 3,2 ΒΒΑ 6,4 1004,8 89 - -
04:25 11,4 9,7 3,2 ΒΒΑ 6,4 1004,8 89 - -
04:30 11,5 9,7 3,2 ΒΒΑ 4,8 1004,8 89 - -
04:35 11,6 9,8 1,6 ΒΒΑ 4,8 1004,9 89 - -
04:40 11,7 9,8 1,6 ΒΒΑ 4,8 1004,9 88 - -
Καθημερινά Περίληψη για Τετάρτη 11 Δεκέμβριος 2019
Ώρα Temp. ( °C ) Dew pt. ( °C ) Άνεμος ( km/h ) απο Ριπή ( km/h ) Πίεση ( hPa ) Humid.( % ) Rainrate ( cm ) Solar ( W/m2 )
Υψηλή12,5 10,8 3,4 ΒΒΑ ( 52/63 ) 8,0 1005,5 91 - 0
Μέση Τιμή11,9 10,3 1,1 Άπνοια #29/57 3,4 1005,2 90 - NAN #0/57
Χαμηλή11,3 9,6 -   0,0 1004,8 88 -  
Καθημερινά Tabular details for Τετάρτη 11 Δεκέμβριος 2019
Ώρα Temp. ( °C ) Dew pt. ( °C ) Άνεμος ( km/h ) απο Ριπή ( km/h ) Πίεση ( hPa ) Humid.( % ) Rainrate ( cm ) Solar ( W/m2 )
00:00 12,5 10,7 3,2 Βοράς 8,0 1005,4 89 - -
00:05 12,4 10,7 1,6 Βοράς 8,0 1005,4 89 - -
00:10 12,4 10,7 3,2 Βοράς 6,4 1005,5 89 - -
00:15 12,4 10,7 3,2 Βοράς 8,0 1005,4 89 - -
00:20 12,4 10,7 1,6 ΒΒΑ 4,8 1005,4 89 - -
00:25 12,4 10,7 1,6 ΒΒΑ 4,8 1005,4 89 - -
00:30 12,4 10,8 3,2 ΒΒΑ 4,8 1005,4 90 - -
00:35 12,4 10,8 1,6 ΒΒΑ 6,4 1005,5 90 - -
00:40 12,4 10,8   Άπνοια 3,2 1005,5 90 - -
00:45 12,4 10,8   Άπνοια 1,6 1005,4 90 - -
00:50 12,4 10,8 0,3 ΒΒΑ 1,9 1005,4 90 - -
00:55 12,4 10,8   Άπνοια   1005,4 90 - -
01:00 12,4 10,8 1,6 ΒΒΑ 3,2 1005,4 90 - -
01:05 12,3 10,7   Άπνοια 3,2 1005,5 90 - -
01:10 12,3 10,8   Άπνοια 3,2 1005,4 91 - -
01:15 12,3 10,8   Άπνοια   1005,4 91 - -
01:20 12,2 10,8 1,6 ΒΒΑ 4,8 1005,2 91 - -
01:25 12,2 10,7   Άπνοια 3,2 1005,1 91 - -
01:30 12,1 10,7 3,4 ΒΒΑ 5,6 1005,1 91 - -
01:35 12,1 10,7 1,6 ΒΒΑ 4,8 1005,1 91 - -
01:40 12,1 10,6 3,2 ΒΒΑ 4,8 1005,2 91 - -
01:45 12,0 10,6   Άπνοια 4,8 1005,3 91 - -
01:50 12,0 10,6   Άπνοια 3,2 1005,3 91 - -
01:55 12,0 10,6 3,2 ΒΒΑ 4,8 1005,3 91 - -
02:00 12,0 10,4 1,6 ΒΒΑ 4,8 1005,4 90 - -
02:05 11,9 10,3 1,6 ΒΒΑ 3,2 1005,3 90 - -
02:10 11,9 10,3 1,6 ΒΒΑ 3,2 1005,3 90 - -
02:15 11,9 10,4   Άπνοια 3,2 1005,2 91 - -
02:20 11,8 10,4   Άπνοια 1,6 1005,2 91 - -
02:25 11,8 10,3   Άπνοια 4,8 1005,2 91 - -
02:30 11,8 10,3   Άπνοια 3,2 1005,2 91 - -
02:35 11,8 10,3   Άπνοια   1005,2 91 - -
02:40 11,8 10,3   Άπνοια   1005,2 91 - -
02:45 11,8 10,3   Άπνοια   1005,1 91 - -
02:50 11,8 10,3   Άπνοια   1005,2 91 - -
02:55 11,7 10,3   Άπνοια   1005,2 91 - -
03:00 11,7 10,1   Άπνοια   1005,2 90 - -
03:05 11,7 10,1   Άπνοια 4,8 1005,2 90 - -
03:10 11,6 10,1 1,6 ΒΒΑ 6,4 1005,2 90 - -
03:15 11,7 10,1 1,6 ΒΒΑ 3,2 1005,1 90 - -
03:20 11,7 10,1 3,2 ΒΒΑ 6,4 1005,0 90 - -
03:25 11,7 10,0 1,6 ΒΒΑ 4,8 1005,0 89 - -
03:30 11,7 9,9   Άπνοια 3,2 1005,0 89 - -
03:35 11,7 9,9   Άπνοια 3,2 1004,9 89 - -
03:40 11,6 9,9   Άπνοια 3,2 1004,9 89 - -
03:45 11,6 9,8   Άπνοια   1004,9 89 - -
03:50 11,6 9,8   Άπνοια   1005,0 89 - -
03:55 11,5 9,7   Άπνοια   1005,0 89 - -
04:00 11,4 9,7   Άπνοια   1005,0 89 - -
04:05 11,4 9,7   Άπνοια   1005,0 89 - -
04:10 11,4 9,7   Άπνοια   1004,9 89 - -
04:15 11,3 9,6 3,2 ΒΒΑ 6,4 1004,8 89 - -
04:20 11,4 9,7 3,2 ΒΒΑ 6,4 1004,8 89 - -
04:25 11,4 9,7 3,2 ΒΒΑ 6,4 1004,8 89 - -
04:30 11,5 9,7 3,2 ΒΒΑ 4,8 1004,8 89 - -
04:35 11,6 9,8 1,6 ΒΒΑ 4,8 1004,9 89 - -
04:40 11,7 9,8 1,6 ΒΒΑ 4,8 1004,9 88 - -

Download your copy of this data-set  here

Our weather-data as stored at Weather Underground. Script developed by Jim McMurry. Προσαρμοσμένος για το πρότυπο του Leuven-Template.eu

Μπορείτε να βρείτε πληροφορίες καιρού μας και σε:

European Weather Network

WeatherCloud

Weather Underground

Δύκτιο Σταθμών Ελλάδας

AWEKAS

HAMweather, WeatherForYou, PWS Weather

MeteoPatras.Eu